sensor_id;sensor_type;location;lat;lon;timestamp;P1;durP1;ratioP1;P2;durP2;ratioP2
82850;SDS011;72609;45.768;4.884;2024-01-27T00:02:00;18.25;;;10.23;;
82850;SDS011;72609;45.768;4.884;2024-01-27T00:04:26;14.93;;;8.57;;
82850;SDS011;72609;45.768;4.884;2024-01-27T00:06:52;17.70;;;9.13;;
82850;SDS011;72609;45.768;4.884;2024-01-27T00:09:18;14.63;;;8.50;;
82850;SDS011;72609;45.768;4.884;2024-01-27T00:11:44;15.88;;;8.48;;
82850;SDS011;72609;45.768;4.884;2024-01-27T00:14:10;14.15;;;8.23;;
82850;SDS011;72609;45.768;4.884;2024-01-27T00:16:36;13.32;;;8.25;;
82850;SDS011;72609;45.768;4.884;2024-01-27T00:19:02;12.88;;;7.55;;
82850;SDS011;72609;45.768;4.884;2024-01-27T00:21:28;14.68;;;7.55;;
82850;SDS011;72609;45.768;4.884;2024-01-27T00:23:54;11.85;;;7.13;;
82850;SDS011;72609;45.768;4.884;2024-01-27T00:26:25;13.10;;;7.88;;
82850;SDS011;72609;45.768;4.884;2024-01-27T00:28:51;10.73;;;6.45;;
82850;SDS011;72609;45.768;4.884;2024-01-27T00:31:17;9.88;;;5.88;;
82850;SDS011;72609;45.768;4.884;2024-01-27T00:33:43;9.68;;;5.25;;
82850;SDS011;72609;45.768;4.884;2024-01-27T00:36:09;12.80;;;5.95;;
82850;SDS011;72609;45.768;4.884;2024-01-27T00:38:35;8.98;;;4.90;;
82850;SDS011;72609;45.768;4.884;2024-01-27T00:41:01;11.00;;;6.10;;
82850;SDS011;72609;45.768;4.884;2024-01-27T00:43:27;8.70;;;5.22;;
82850;SDS011;72609;45.768;4.884;2024-01-27T00:45:53;8.38;;;4.47;;
82850;SDS011;72609;45.768;4.884;2024-01-27T00:48:19;7.70;;;4.53;;
82850;SDS011;72609;45.768;4.884;2024-01-27T00:50:45;9.25;;;4.90;;
82850;SDS011;72609;45.768;4.884;2024-01-27T00:53:11;6.78;;;4.85;;
82850;SDS011;72609;45.768;4.884;2024-01-27T00:55:37;7.97;;;4.10;;
82850;SDS011;72609;45.768;4.884;2024-01-27T00:58:03;7.07;;;4.63;;
82850;SDS011;72609;45.768;4.884;2024-01-27T01:00:30;7.70;;;4.57;;
82850;SDS011;72609;45.768;4.884;2024-01-27T01:02:56;8.32;;;4.60;;
82850;SDS011;72609;45.768;4.884;2024-01-27T01:05:22;5.82;;;3.80;;
82850;SDS011;72609;45.768;4.884;2024-01-27T01:07:48;7.68;;;4.93;;
82850;SDS011;72609;45.768;4.884;2024-01-27T01:10:14;6.95;;;4.93;;
82850;SDS011;72609;45.768;4.884;2024-01-27T01:12:40;7.47;;;4.25;;
82850;SDS011;72609;45.768;4.884;2024-01-27T01:15:06;7.47;;;4.32;;
82850;SDS011;72609;45.768;4.884;2024-01-27T01:17:32;6.03;;;3.38;;
82850;SDS011;72609;45.768;4.884;2024-01-27T01:19:58;7.35;;;3.70;;
82850;SDS011;72609;45.768;4.884;2024-01-27T01:22:24;6.65;;;4.20;;
82850;SDS011;72609;45.768;4.884;2024-01-27T01:24:50;7.20;;;4.22;;
82850;SDS011;72609;45.768;4.884;2024-01-27T01:27:16;9.18;;;5.18;;
82850;SDS011;72609;45.768;4.884;2024-01-27T01:29:44;6.82;;;3.85;;
82850;SDS011;72609;45.768;4.884;2024-01-27T01:32:10;7.03;;;4.03;;
82850;SDS011;72609;45.768;4.884;2024-01-27T01:34:36;6.63;;;3.88;;
82850;SDS011;72609;45.768;4.884;2024-01-27T01:37:02;5.55;;;2.85;;
82850;SDS011;72609;45.768;4.884;2024-01-27T01:39:28;7.28;;;4.20;;
82850;SDS011;72609;45.768;4.884;2024-01-27T01:41:54;6.50;;;3.80;;
82850;SDS011;72609;45.768;4.884;2024-01-27T01:44:20;6.78;;;4.38;;
82850;SDS011;72609;45.768;4.884;2024-01-27T01:46:46;8.45;;;4.60;;
82850;SDS011;72609;45.768;4.884;2024-01-27T01:49:12;4.78;;;3.15;;
82850;SDS011;72609;45.768;4.884;2024-01-27T01:51:38;5.22;;;3.35;;
82850;SDS011;72609;45.768;4.884;2024-01-27T01:54:05;7.65;;;4.13;;
82850;SDS011;72609;45.768;4.884;2024-01-27T01:56:31;6.20;;;3.58;;
82850;SDS011;72609;45.768;4.884;2024-01-27T01:58:57;8.10;;;3.85;;
82850;SDS011;72609;45.768;4.884;2024-01-27T02:01:23;8.48;;;4.25;;
82850;SDS011;72609;45.768;4.884;2024-01-27T02:03:52;6.65;;;2.80;;
82850;SDS011;72609;45.768;4.884;2024-01-27T02:06:18;6.65;;;4.55;;
82850;SDS011;72609;45.768;4.884;2024-01-27T02:08:44;11.05;;;3.50;;
82850;SDS011;72609;45.768;4.884;2024-01-27T02:11:10;6.45;;;3.67;;
82850;SDS011;72609;45.768;4.884;2024-01-27T02:13:38;6.15;;;3.00;;
82850;SDS011;72609;45.768;4.884;2024-01-27T02:16:04;10.15;;;3.83;;
82850;SDS011;72609;45.768;4.884;2024-01-27T02:18:30;6.78;;;3.63;;
82850;SDS011;72609;45.768;4.884;2024-01-27T02:20:56;5.82;;;3.00;;
82850;SDS011;72609;45.768;4.884;2024-01-27T02:23:22;5.15;;;2.72;;
82850;SDS011;72609;45.768;4.884;2024-01-27T02:25:48;7.35;;;3.28;;
82850;SDS011;72609;45.768;4.884;2024-01-27T02:28:15;7.57;;;2.92;;
82850;SDS011;72609;45.768;4.884;2024-01-27T02:30:41;5.15;;;3.22;;
82850;SDS011;72609;45.768;4.884;2024-01-27T02:33:08;4.57;;;2.90;;
82850;SDS011;72609;45.768;4.884;2024-01-27T02:35:34;9.27;;;3.03;;
82850;SDS011;72609;45.768;4.884;2024-01-27T02:38:00;4.68;;;2.40;;
82850;SDS011;72609;45.768;4.884;2024-01-27T02:40:26;5.85;;;2.45;;
82850;SDS011;72609;45.768;4.884;2024-01-27T02:42:52;6.97;;;3.08;;
82850;SDS011;72609;45.768;4.884;2024-01-27T02:45:18;4.78;;;2.85;;
82850;SDS011;72609;45.768;4.884;2024-01-27T02:47:44;7.95;;;3.55;;
82850;SDS011;72609;45.768;4.884;2024-01-27T02:50:10;6.05;;;2.22;;
82850;SDS011;72609;45.768;4.884;2024-01-27T02:52:36;4.72;;;2.53;;
82850;SDS011;72609;45.768;4.884;2024-01-27T02:55:02;5.72;;;2.85;;
82850;SDS011;72609;45.768;4.884;2024-01-27T02:57:28;5.45;;;2.75;;
82850;SDS011;72609;45.768;4.884;2024-01-27T02:59:54;5.10;;;2.70;;
82850;SDS011;72609;45.768;4.884;2024-01-27T03:02:20;6.78;;;3.10;;
82850;SDS011;72609;45.768;4.884;2024-01-27T03:04:46;6.55;;;2.80;;
82850;SDS011;72609;45.768;4.884;2024-01-27T03:07:12;7.18;;;3.50;;
82850;SDS011;72609;45.768;4.884;2024-01-27T03:09:38;5.72;;;3.17;;
82850;SDS011;72609;45.768;4.884;2024-01-27T03:12:04;5.15;;;2.95;;
82850;SDS011;72609;45.768;4.884;2024-01-27T03:14:30;4.78;;;2.97;;
82850;SDS011;72609;45.768;4.884;2024-01-27T03:16:56;5.28;;;2.72;;
82850;SDS011;72609;45.768;4.884;2024-01-27T03:19:22;5.95;;;3.15;;
82850;SDS011;72609;45.768;4.884;2024-01-27T03:21:48;11.35;;;2.55;;
82850;SDS011;72609;45.768;4.884;2024-01-27T03:24:14;7.85;;;3.30;;
82850;SDS011;72609;45.768;4.884;2024-01-27T03:26:40;5.63;;;3.05;;
82850;SDS011;72609;45.768;4.884;2024-01-27T03:29:06;4.80;;;2.08;;
82850;SDS011;72609;45.768;4.884;2024-01-27T03:31:32;3.97;;;2.33;;
82850;SDS011;72609;45.768;4.884;2024-01-27T03:34:02;9.93;;;2.67;;
82850;SDS011;72609;45.768;4.884;2024-01-27T03:36:28;4.15;;;2.60;;
82850;SDS011;72609;45.768;4.884;2024-01-27T03:38:55;5.82;;;3.40;;
82850;SDS011;72609;45.768;4.884;2024-01-27T03:41:21;5.30;;;2.63;;
82850;SDS011;72609;45.768;4.884;2024-01-27T03:43:47;6.28;;;2.30;;
82850;SDS011;72609;45.768;4.884;2024-01-27T03:46:14;5.28;;;2.35;;
82850;SDS011;72609;45.768;4.884;2024-01-27T03:48:40;6.30;;;1.50;;
82850;SDS011;72609;45.768;4.884;2024-01-27T03:51:06;9.20;;;2.28;;
82850;SDS011;72609;45.768;4.884;2024-01-27T03:53:32;8.00;;;2.00;;
82850;SDS011;72609;45.768;4.884;2024-01-27T03:55:58;6.03;;;1.58;;
82850;SDS011;72609;45.768;4.884;2024-01-27T03:58:27;8.20;;;2.80;;
82850;SDS011;72609;45.768;4.884;2024-01-27T04:00:53;4.60;;;2.75;;
82850;SDS011;72609;45.768;4.884;2024-01-27T04:03:19;6.30;;;2.00;;
82850;SDS011;72609;45.768;4.884;2024-01-27T04:05:45;7.57;;;2.25;;
82850;SDS011;72609;45.768;4.884;2024-01-27T04:08:11;6.82;;;2.38;;
82850;SDS011;72609;45.768;4.884;2024-01-27T04:10:38;7.45;;;1.60;;
82850;SDS011;72609;45.768;4.884;2024-01-27T04:13:04;7.30;;;2.53;;
82850;SDS011;72609;45.768;4.884;2024-01-27T04:15:30;7.13;;;2.95;;
82850;SDS011;72609;45.768;4.884;2024-01-27T04:18:03;6.35;;;2.53;;
82850;SDS011;72609;45.768;4.884;2024-01-27T04:20:29;6.10;;;2.33;;
82850;SDS011;72609;45.768;4.884;2024-01-27T04:22:55;8.68;;;2.35;;
82850;SDS011;72609;45.768;4.884;2024-01-27T04:25:21;7.22;;;2.13;;
82850;SDS011;72609;45.768;4.884;2024-01-27T04:27:47;9.38;;;3.17;;
82850;SDS011;72609;45.768;4.884;2024-01-27T04:30:13;5.05;;;2.50;;
82850;SDS011;72609;45.768;4.884;2024-01-27T04:32:39;5.43;;;2.25;;
82850;SDS011;72609;45.768;4.884;2024-01-27T04:35:08;7.57;;;2.95;;
82850;SDS011;72609;45.768;4.884;2024-01-27T04:37:35;6.72;;;2.45;;
82850;SDS011;72609;45.768;4.884;2024-01-27T04:40:01;5.65;;;1.83;;
82850;SDS011;72609;45.768;4.884;2024-01-27T04:42:27;5.53;;;2.05;;
82850;SDS011;72609;45.768;4.884;2024-01-27T04:44:53;6.00;;;3.10;;
82850;SDS011;72609;45.768;4.884;2024-01-27T04:47:19;5.88;;;2.40;;
82850;SDS011;72609;45.768;4.884;2024-01-27T04:49:45;6.80;;;2.58;;
82850;SDS011;72609;45.768;4.884;2024-01-27T04:52:11;5.35;;;1.95;;
82850;SDS011;72609;45.768;4.884;2024-01-27T04:54:37;7.72;;;2.78;;
82850;SDS011;72609;45.768;4.884;2024-01-27T04:57:03;5.68;;;2.08;;
82850;SDS011;72609;45.768;4.884;2024-01-27T04:59:29;10.02;;;2.67;;
82850;SDS011;72609;45.768;4.884;2024-01-27T05:01:55;5.80;;;2.10;;
82850;SDS011;72609;45.768;4.884;2024-01-27T05:04:21;6.53;;;2.70;;
82850;SDS011;72609;45.768;4.884;2024-01-27T05:06:47;6.07;;;2.72;;
82850;SDS011;72609;45.768;4.884;2024-01-27T05:09:13;3.72;;;2.30;;
82850;SDS011;72609;45.768;4.884;2024-01-27T05:11:41;6.68;;;2.67;;
82850;SDS011;72609;45.768;4.884;2024-01-27T05:14:07;6.82;;;2.70;;
82850;SDS011;72609;45.768;4.884;2024-01-27T05:16:33;7.88;;;2.80;;
82850;SDS011;72609;45.768;4.884;2024-01-27T05:18:59;6.47;;;3.05;;
82850;SDS011;72609;45.768;4.884;2024-01-27T05:21:25;8.93;;;3.28;;
82850;SDS011;72609;45.768;4.884;2024-01-27T05:23:51;4.55;;;2.53;;
82850;SDS011;72609;45.768;4.884;2024-01-27T05:26:17;5.82;;;2.47;;
82850;SDS011;72609;45.768;4.884;2024-01-27T05:28:43;8.27;;;3.50;;
82850;SDS011;72609;45.768;4.884;2024-01-27T05:31:09;6.30;;;2.90;;
82850;SDS011;72609;45.768;4.884;2024-01-27T05:33:35;11.52;;;2.97;;
82850;SDS011;72609;45.768;4.884;2024-01-27T05:36:01;7.25;;;2.42;;
82850;SDS011;72609;45.768;4.884;2024-01-27T05:38:27;9.32;;;2.70;;
82850;SDS011;72609;45.768;4.884;2024-01-27T05:40:55;8.88;;;2.53;;
82850;SDS011;72609;45.768;4.884;2024-01-27T05:43:21;5.63;;;2.50;;
82850;SDS011;72609;45.768;4.884;2024-01-27T05:45:47;5.07;;;2.65;;
82850;SDS011;72609;45.768;4.884;2024-01-27T05:48:14;5.25;;;2.63;;
82850;SDS011;72609;45.768;4.884;2024-01-27T05:50:41;4.32;;;2.25;;
82850;SDS011;72609;45.768;4.884;2024-01-27T05:53:08;6.95;;;3.30;;
82850;SDS011;72609;45.768;4.884;2024-01-27T05:55:34;8.75;;;3.72;;
82850;SDS011;72609;45.768;4.884;2024-01-27T05:58:00;4.63;;;2.55;;
82850;SDS011;72609;45.768;4.884;2024-01-27T06:00:26;8.07;;;2.80;;
82850;SDS011;72609;45.768;4.884;2024-01-27T06:02:52;6.72;;;3.05;;
82850;SDS011;72609;45.768;4.884;2024-01-27T06:05:18;11.10;;;3.40;;
82850;SDS011;72609;45.768;4.884;2024-01-27T06:07:44;5.75;;;2.95;;
82850;SDS011;72609;45.768;4.884;2024-01-27T06:10:11;6.57;;;3.38;;
82850;SDS011;72609;45.768;4.884;2024-01-27T06:12:37;7.28;;;3.20;;
82850;SDS011;72609;45.768;4.884;2024-01-27T06:17:31;8.55;;;4.05;;
82850;SDS011;72609;45.768;4.884;2024-01-27T06:19:57;3.45;;;2.60;;
82850;SDS011;72609;45.768;4.884;2024-01-27T06:22:23;7.05;;;3.63;;
82850;SDS011;72609;45.768;4.884;2024-01-27T06:24:49;7.95;;;3.25;;
82850;SDS011;72609;45.768;4.884;2024-01-27T06:27:14;12.70;;;3.15;;
82850;SDS011;72609;45.768;4.884;2024-01-27T06:29:40;7.47;;;2.90;;
82850;SDS011;72609;45.768;4.884;2024-01-27T06:32:07;8.75;;;3.50;;
82850;SDS011;72609;45.768;4.884;2024-01-27T06:34:33;6.70;;;3.13;;
82850;SDS011;72609;45.768;4.884;2024-01-27T06:36:59;8.90;;;2.40;;
82850;SDS011;72609;45.768;4.884;2024-01-27T06:39:25;9.27;;;3.58;;
82850;SDS011;72609;45.768;4.884;2024-01-27T06:41:51;8.75;;;4.15;;
82850;SDS011;72609;45.768;4.884;2024-01-27T06:44:17;8.70;;;3.65;;
82850;SDS011;72609;45.768;4.884;2024-01-27T06:46:43;7.05;;;3.30;;
82850;SDS011;72609;45.768;4.884;2024-01-27T06:49:11;5.40;;;3.38;;
82850;SDS011;72609;45.768;4.884;2024-01-27T06:56:32;9.70;;;3.35;;
82850;SDS011;72609;45.768;4.884;2024-01-27T06:58:58;7.75;;;4.03;;
82850;SDS011;72609;45.768;4.884;2024-01-27T07:01:24;8.30;;;3.30;;
82850;SDS011;72609;45.768;4.884;2024-01-27T07:03:50;9.70;;;3.38;;
82850;SDS011;72609;45.768;4.884;2024-01-27T07:06:16;7.80;;;3.00;;
82850;SDS011;72609;45.768;4.884;2024-01-27T07:08:42;9.80;;;3.65;;
82850;SDS011;72609;45.768;4.884;2024-01-27T07:11:08;10.20;;;3.10;;
82850;SDS011;72609;45.768;4.884;2024-01-27T07:13:33;7.07;;;3.25;;
82850;SDS011;72609;45.768;4.884;2024-01-27T07:15:59;7.38;;;3.15;;
82850;SDS011;72609;45.768;4.884;2024-01-27T07:18:25;5.82;;;2.83;;
82850;SDS011;72609;45.768;4.884;2024-01-27T07:20:51;9.23;;;2.80;;
82850;SDS011;72609;45.768;4.884;2024-01-27T07:23:19;6.53;;;3.28;;
82850;SDS011;72609;45.768;4.884;2024-01-27T07:25:45;12.45;;;4.32;;
82850;SDS011;72609;45.768;4.884;2024-01-27T07:28:11;9.23;;;2.50;;
82850;SDS011;72609;45.768;4.884;2024-01-27T07:30:37;6.53;;;3.10;;
82850;SDS011;72609;45.768;4.884;2024-01-27T07:33:04;6.03;;;2.67;;
82850;SDS011;72609;45.768;4.884;2024-01-27T07:35:30;7.85;;;3.13;;
82850;SDS011;72609;45.768;4.884;2024-01-27T07:37:56;8.02;;;3.05;;
82850;SDS011;72609;45.768;4.884;2024-01-27T07:40:22;7.38;;;2.92;;
82850;SDS011;72609;45.768;4.884;2024-01-27T07:42:48;8.80;;;2.53;;
82850;SDS011;72609;45.768;4.884;2024-01-27T07:45:14;7.65;;;3.85;;
82850;SDS011;72609;45.768;4.884;2024-01-27T07:47:40;7.38;;;3.13;;
82850;SDS011;72609;45.768;4.884;2024-01-27T07:50:06;7.82;;;3.13;;
82850;SDS011;72609;45.768;4.884;2024-01-27T07:52:34;9.65;;;3.22;;
82850;SDS011;72609;45.768;4.884;2024-01-27T07:55:00;5.95;;;2.78;;
82850;SDS011;72609;45.768;4.884;2024-01-27T07:57:27;8.32;;;3.47;;
82850;SDS011;72609;45.768;4.884;2024-01-27T08:04:44;10.82;;;3.00;;
82850;SDS011;72609;45.768;4.884;2024-01-27T08:07:10;6.93;;;4.15;;
82850;SDS011;72609;45.768;4.884;2024-01-27T08:09:39;6.95;;;2.83;;
82850;SDS011;72609;45.768;4.884;2024-01-27T08:12:05;7.25;;;3.10;;
82850;SDS011;72609;45.768;4.884;2024-01-27T08:14:32;8.20;;;4.03;;
82850;SDS011;72609;45.768;4.884;2024-01-27T08:19:24;6.45;;;2.28;;
82850;SDS011;72609;45.768;4.884;2024-01-27T08:21:50;6.50;;;3.53;;
82850;SDS011;72609;45.768;4.884;2024-01-27T08:24:16;6.38;;;2.60;;
82850;SDS011;72609;45.768;4.884;2024-01-27T08:26:42;11.25;;;3.05;;
82850;SDS011;72609;45.768;4.884;2024-01-27T08:29:09;7.20;;;3.90;;
82850;SDS011;72609;45.768;4.884;2024-01-27T08:31:35;11.77;;;3.10;;
82850;SDS011;72609;45.768;4.884;2024-01-27T08:34:03;11.20;;;3.35;;
82850;SDS011;72609;45.768;4.884;2024-01-27T08:36:29;7.72;;;3.10;;
82850;SDS011;72609;45.768;4.884;2024-01-27T08:38:55;5.60;;;3.42;;
82850;SDS011;72609;45.768;4.884;2024-01-27T08:41:21;14.05;;;3.50;;
82850;SDS011;72609;45.768;4.884;2024-01-27T08:43:47;7.53;;;3.00;;
82850;SDS011;72609;45.768;4.884;2024-01-27T08:46:13;6.43;;;2.85;;
82850;SDS011;72609;45.768;4.884;2024-01-27T08:48:40;5.65;;;2.50;;
82850;SDS011;72609;45.768;4.884;2024-01-27T08:51:09;6.68;;;3.17;;
82850;SDS011;72609;45.768;4.884;2024-01-27T08:53:37;9.80;;;3.22;;
82850;SDS011;72609;45.768;4.884;2024-01-27T08:56:03;5.65;;;2.65;;
82850;SDS011;72609;45.768;4.884;2024-01-27T08:58:29;6.30;;;2.80;;
82850;SDS011;72609;45.768;4.884;2024-01-27T09:00:55;8.82;;;2.80;;
82850;SDS011;72609;45.768;4.884;2024-01-27T09:03:21;7.78;;;2.95;;
82850;SDS011;72609;45.768;4.884;2024-01-27T09:05:47;6.25;;;3.03;;
82850;SDS011;72609;45.768;4.884;2024-01-27T09:08:14;10.73;;;3.58;;
82850;SDS011;72609;45.768;4.884;2024-01-27T09:10:41;8.52;;;3.25;;
82850;SDS011;72609;45.768;4.884;2024-01-27T09:13:07;7.25;;;2.97;;
82850;SDS011;72609;45.768;4.884;2024-01-27T09:15:33;7.63;;;3.47;;
82850;SDS011;72609;45.768;4.884;2024-01-27T09:17:59;10.75;;;3.58;;
82850;SDS011;72609;45.768;4.884;2024-01-27T09:20:25;5.18;;;2.80;;
82850;SDS011;72609;45.768;4.884;2024-01-27T09:22:51;6.60;;;3.65;;
82850;SDS011;72609;45.768;4.884;2024-01-27T09:25:17;7.13;;;2.15;;
82850;SDS011;72609;45.768;4.884;2024-01-27T09:27:43;4.65;;;3.05;;
82850;SDS011;72609;45.768;4.884;2024-01-27T09:30:09;8.10;;;3.30;;
82850;SDS011;72609;45.768;4.884;2024-01-27T09:32:35;7.10;;;2.92;;
82850;SDS011;72609;45.768;4.884;2024-01-27T09:35:01;8.75;;;3.78;;
82850;SDS011;72609;45.768;4.884;2024-01-27T09:37:27;7.15;;;3.05;;
82850;SDS011;72609;45.768;4.884;2024-01-27T09:39:53;14.85;;;4.80;;
82850;SDS011;72609;45.768;4.884;2024-01-27T09:42:20;8.57;;;3.35;;
82850;SDS011;72609;45.768;4.884;2024-01-27T09:44:47;9.60;;;3.58;;
82850;SDS011;72609;45.768;4.884;2024-01-27T09:47:14;12.25;;;4.13;;
82850;SDS011;72609;45.768;4.884;2024-01-27T09:49:40;6.88;;;2.67;;
82850;SDS011;72609;45.768;4.884;2024-01-27T09:52:06;8.65;;;3.78;;
82850;SDS011;72609;45.768;4.884;2024-01-27T09:56:59;6.00;;;3.85;;
82850;SDS011;72609;45.768;4.884;2024-01-27T09:59:25;12.10;;;4.40;;
82850;SDS011;72609;45.768;4.884;2024-01-27T10:01:51;11.13;;;5.45;;
82850;SDS011;72609;45.768;4.884;2024-01-27T10:04:21;12.55;;;5.07;;
82850;SDS011;72609;45.768;4.884;2024-01-27T10:06:48;10.07;;;5.07;;
82850;SDS011;72609;45.768;4.884;2024-01-27T10:09:16;12.65;;;5.00;;
82850;SDS011;72609;45.768;4.884;2024-01-27T10:11:45;8.73;;;4.35;;
82850;SDS011;72609;45.768;4.884;2024-01-27T10:14:12;9.20;;;4.57;;
82850;SDS011;72609;45.768;4.884;2024-01-27T10:16:42;11.98;;;5.35;;
82850;SDS011;72609;45.768;4.884;2024-01-27T10:19:11;7.85;;;4.60;;
82850;SDS011;72609;45.768;4.884;2024-01-27T10:21:38;5.97;;;3.33;;
82850;SDS011;72609;45.768;4.884;2024-01-27T10:24:04;10.27;;;3.92;;
82850;SDS011;72609;45.768;4.884;2024-01-27T10:26:31;9.35;;;4.85;;
82850;SDS011;72609;45.768;4.884;2024-01-27T10:28:58;10.05;;;4.88;;
82850;SDS011;72609;45.768;4.884;2024-01-27T10:31:27;11.63;;;5.60;;
82850;SDS011;72609;45.768;4.884;2024-01-27T10:33:56;9.15;;;4.28;;
82850;SDS011;72609;45.768;4.884;2024-01-27T10:36:23;10.65;;;4.53;;
82850;SDS011;72609;45.768;4.884;2024-01-27T10:38:49;10.45;;;4.65;;
82850;SDS011;72609;45.768;4.884;2024-01-27T10:41:19;8.77;;;5.18;;
82850;SDS011;72609;45.768;4.884;2024-01-27T10:43:47;12.80;;;5.18;;
82850;SDS011;72609;45.768;4.884;2024-01-27T10:46:15;8.40;;;4.82;;
82850;SDS011;72609;45.768;4.884;2024-01-27T10:48:44;7.60;;;4.82;;
82850;SDS011;72609;45.768;4.884;2024-01-27T10:51:14;7.03;;;4.57;;
82850;SDS011;72609;45.768;4.884;2024-01-27T10:53:42;6.90;;;4.28;;
82850;SDS011;72609;45.768;4.884;2024-01-27T10:56:10;6.88;;;4.30;;
82850;SDS011;72609;45.768;4.884;2024-01-27T10:58:36;11.02;;;4.60;;
82850;SDS011;72609;45.768;4.884;2024-01-27T11:01:07;8.73;;;5.07;;
82850;SDS011;72609;45.768;4.884;2024-01-27T11:03:33;6.45;;;4.38;;
82850;SDS011;72609;45.768;4.884;2024-01-27T11:06:01;7.07;;;4.32;;
82850;SDS011;72609;45.768;4.884;2024-01-27T11:08:28;11.27;;;5.55;;
82850;SDS011;72609;45.768;4.884;2024-01-27T11:10:54;6.43;;;3.65;;
82850;SDS011;72609;45.768;4.884;2024-01-27T11:13:20;6.05;;;4.47;;
82850;SDS011;72609;45.768;4.884;2024-01-27T11:15:52;5.88;;;4.15;;
82850;SDS011;72609;45.768;4.884;2024-01-27T11:18:19;11.00;;;3.78;;
82850;SDS011;72609;45.768;4.884;2024-01-27T11:20:45;9.13;;;3.97;;
82850;SDS011;72609;45.768;4.884;2024-01-27T11:23:14;5.97;;;4.05;;
82850;SDS011;72609;45.768;4.884;2024-01-27T11:25:40;9.13;;;4.50;;
82850;SDS011;72609;45.768;4.884;2024-01-27T11:28:10;8.60;;;4.57;;
82850;SDS011;72609;45.768;4.884;2024-01-27T11:30:44;5.68;;;3.72;;
82850;SDS011;72609;45.768;4.884;2024-01-27T11:33:10;12.15;;;5.32;;
82850;SDS011;72609;45.768;4.884;2024-01-27T11:35:36;11.20;;;5.05;;
82850;SDS011;72609;45.768;4.884;2024-01-27T11:38:02;6.60;;;4.53;;
82850;SDS011;72609;45.768;4.884;2024-01-27T11:40:28;7.90;;;3.53;;
82850;SDS011;72609;45.768;4.884;2024-01-27T11:45:20;8.63;;;4.93;;
82850;SDS011;72609;45.768;4.884;2024-01-27T11:47:47;7.85;;;4.30;;
82850;SDS011;72609;45.768;4.884;2024-01-27T11:50:13;10.82;;;5.03;;
82850;SDS011;72609;45.768;4.884;2024-01-27T11:52:38;6.68;;;4.00;;
82850;SDS011;72609;45.768;4.884;2024-01-27T11:55:05;7.45;;;4.00;;
82850;SDS011;72609;45.768;4.884;2024-01-27T11:57:31;8.52;;;3.97;;
82850;SDS011;72609;45.768;4.884;2024-01-27T11:59:57;7.50;;;4.82;;
82850;SDS011;72609;45.768;4.884;2024-01-27T12:02:23;6.82;;;4.28;;
82850;SDS011;72609;45.768;4.884;2024-01-27T12:04:49;7.63;;;4.43;;
82850;SDS011;72609;45.768;4.884;2024-01-27T12:07:15;9.13;;;4.55;;
82850;SDS011;72609;45.768;4.884;2024-01-27T12:09:43;7.05;;;4.47;;
82850;SDS011;72609;45.768;4.884;2024-01-27T12:12:10;11.75;;;5.15;;
82850;SDS011;72609;45.768;4.884;2024-01-27T12:14:41;8.40;;;4.68;;
82850;SDS011;72609;45.768;4.884;2024-01-27T12:17:09;7.55;;;5.13;;
82850;SDS011;72609;45.768;4.884;2024-01-27T12:19:35;9.82;;;4.60;;
82850;SDS011;72609;45.768;4.884;2024-01-27T12:22:02;5.50;;;3.72;;
82850;SDS011;72609;45.768;4.884;2024-01-27T12:24:27;5.78;;;3.42;;
82850;SDS011;72609;45.768;4.884;2024-01-27T12:26:55;6.88;;;4.32;;
82850;SDS011;72609;45.768;4.884;2024-01-27T12:29:22;7.22;;;4.72;;
82850;SDS011;72609;45.768;4.884;2024-01-27T12:31:48;8.10;;;4.45;;
82850;SDS011;72609;45.768;4.884;2024-01-27T12:34:14;5.68;;;3.95;;
82850;SDS011;72609;45.768;4.884;2024-01-27T12:36:41;10.30;;;5.20;;
82850;SDS011;72609;45.768;4.884;2024-01-27T12:41:33;5.15;;;4.00;;
82850;SDS011;72609;45.768;4.884;2024-01-27T12:43:59;6.03;;;4.60;;
82850;SDS011;72609;45.768;4.884;2024-01-27T12:46:26;10.60;;;5.10;;
82850;SDS011;72609;45.768;4.884;2024-01-27T12:48:52;9.15;;;4.80;;
82850;SDS011;72609;45.768;4.884;2024-01-27T12:51:18;7.65;;;4.63;;
82850;SDS011;72609;45.768;4.884;2024-01-27T12:53:44;6.80;;;5.18;;
82850;SDS011;72609;45.768;4.884;2024-01-27T12:56:11;6.78;;;4.72;;
82850;SDS011;72609;45.768;4.884;2024-01-27T12:58:38;8.05;;;5.35;;
82850;SDS011;72609;45.768;4.884;2024-01-27T13:01:04;9.05;;;5.70;;
82850;SDS011;72609;45.768;4.884;2024-01-27T13:03:31;8.52;;;6.13;;
82850;SDS011;72609;45.768;4.884;2024-01-27T13:05:57;11.27;;;6.07;;
82850;SDS011;72609;45.768;4.884;2024-01-27T13:08:23;7.03;;;5.60;;
82850;SDS011;72609;45.768;4.884;2024-01-27T13:10:49;9.93;;;5.53;;
82850;SDS011;72609;45.768;4.884;2024-01-27T13:13:15;11.32;;;5.85;;
82850;SDS011;72609;45.768;4.884;2024-01-27T13:15:42;8.95;;;6.55;;
82850;SDS011;72609;45.768;4.884;2024-01-27T13:18:08;9.93;;;5.72;;
82850;SDS011;72609;45.768;4.884;2024-01-27T13:23:01;8.93;;;5.18;;
82850;SDS011;72609;45.768;4.884;2024-01-27T13:25:27;11.95;;;4.70;;
82850;SDS011;72609;45.768;4.884;2024-01-27T13:27:53;6.57;;;4.70;;
82850;SDS011;72609;45.768;4.884;2024-01-27T13:30:19;10.95;;;5.07;;
82850;SDS011;72609;45.768;4.884;2024-01-27T13:32:45;8.05;;;5.40;;
82850;SDS011;72609;45.768;4.884;2024-01-27T13:35:11;8.75;;;5.60;;
82850;SDS011;72609;45.768;4.884;2024-01-27T13:37:37;7.57;;;4.70;;
82850;SDS011;72609;45.768;4.884;2024-01-27T13:40:04;12.68;;;6.00;;
82850;SDS011;72609;45.768;4.884;2024-01-27T13:42:32;6.60;;;3.60;;
82850;SDS011;72609;45.768;4.884;2024-01-27T13:44:58;8.07;;;5.20;;
82850;SDS011;72609;45.768;4.884;2024-01-27T13:47:24;13.27;;;5.72;;
82850;SDS011;72609;45.768;4.884;2024-01-27T13:49:50;15.55;;;5.45;;
82850;SDS011;72609;45.768;4.884;2024-01-27T13:52:16;6.68;;;4.60;;
82850;SDS011;72609;45.768;4.884;2024-01-27T13:54:42;9.73;;;4.78;;
82850;SDS011;72609;45.768;4.884;2024-01-27T13:57:09;10.52;;;5.97;;
82850;SDS011;72609;45.768;4.884;2024-01-27T13:59:35;13.13;;;5.30;;
82850;SDS011;72609;45.768;4.884;2024-01-27T14:02:01;8.05;;;5.45;;
82850;SDS011;72609;45.768;4.884;2024-01-27T14:04:27;6.28;;;4.82;;
82850;SDS011;72609;45.768;4.884;2024-01-27T14:06:53;6.57;;;4.35;;
82850;SDS011;72609;45.768;4.884;2024-01-27T14:09:21;9.82;;;6.15;;
82850;SDS011;72609;45.768;4.884;2024-01-27T14:11:47;9.90;;;5.00;;
82850;SDS011;72609;45.768;4.884;2024-01-27T14:14:13;9.10;;;4.95;;
82850;SDS011;72609;45.768;4.884;2024-01-27T14:16:39;9.55;;;6.20;;
82850;SDS011;72609;45.768;4.884;2024-01-27T14:19:06;7.07;;;4.88;;
82850;SDS011;72609;45.768;4.884;2024-01-27T14:21:32;8.23;;;5.65;;
82850;SDS011;72609;45.768;4.884;2024-01-27T14:23:58;6.82;;;5.30;;
82850;SDS011;72609;45.768;4.884;2024-01-27T14:26:30;10.02;;;5.80;;
82850;SDS011;72609;45.768;4.884;2024-01-27T14:28:56;10.20;;;5.47;;
82850;SDS011;72609;45.768;4.884;2024-01-27T14:31:22;7.90;;;5.75;;
82850;SDS011;72609;45.768;4.884;2024-01-27T14:33:48;9.23;;;5.45;;
82850;SDS011;72609;45.768;4.884;2024-01-27T14:36:15;13.38;;;5.32;;
82850;SDS011;72609;45.768;4.884;2024-01-27T14:38:41;9.25;;;5.47;;
82850;SDS011;72609;45.768;4.884;2024-01-27T14:41:07;6.05;;;4.90;;
82850;SDS011;72609;45.768;4.884;2024-01-27T14:43:33;10.75;;;5.20;;
82850;SDS011;72609;45.768;4.884;2024-01-27T14:45:59;8.60;;;5.75;;
82850;SDS011;72609;45.768;4.884;2024-01-27T14:48:25;11.50;;;5.65;;
82850;SDS011;72609;45.768;4.884;2024-01-27T14:50:51;10.07;;;5.15;;
82850;SDS011;72609;45.768;4.884;2024-01-27T14:53:28;6.18;;;4.80;;
82850;SDS011;72609;45.768;4.884;2024-01-27T14:55:55;8.60;;;4.85;;
82850;SDS011;72609;45.768;4.884;2024-01-27T14:58:21;8.48;;;4.90;;
82850;SDS011;72609;45.768;4.884;2024-01-27T15:00:48;7.20;;;4.25;;
82850;SDS011;72609;45.768;4.884;2024-01-27T15:03:18;10.32;;;5.38;;
82850;SDS011;72609;45.768;4.884;2024-01-27T15:08:09;8.25;;;5.78;;